sensor_id;sensor_type;location;lat;lon;timestamp;P1;durP1;ratioP1;P2;durP2;ratioP2
10303;SDS011;5197;48.152;8.590;2022-10-17T00:00:41;2.87;;;2.00;;
10303;SDS011;5197;48.152;8.590;2022-10-17T00:03:09;2.80;;;1.90;;
10303;SDS011;5197;48.152;8.590;2022-10-17T00:05:40;2.80;;;1.80;;
10303;SDS011;5197;48.152;8.590;2022-10-17T00:08:08;3.07;;;1.93;;
10303;SDS011;5197;48.152;8.590;2022-10-17T00:10:35;2.23;;;1.70;;
10303;SDS011;5197;48.152;8.590;2022-10-17T00:13:02;2.73;;;2.20;;
10303;SDS011;5197;48.152;8.590;2022-10-17T00:15:30;1.93;;;1.83;;
10303;SDS011;5197;48.152;8.590;2022-10-17T00:17:58;2.17;;;1.97;;
10303;SDS011;5197;48.152;8.590;2022-10-17T00:20:25;2.00;;;1.90;;
10303;SDS011;5197;48.152;8.590;2022-10-17T00:22:52;2.93;;;1.93;;
10303;SDS011;5197;48.152;8.590;2022-10-17T00:25:19;1.90;;;1.80;;
10303;SDS011;5197;48.152;8.590;2022-10-17T00:27:46;3.00;;;2.00;;
10303;SDS011;5197;48.152;8.590;2022-10-17T00:30:14;3.43;;;1.73;;
10303;SDS011;5197;48.152;8.590;2022-10-17T00:32:41;2.10;;;1.90;;
10303;SDS011;5197;48.152;8.590;2022-10-17T00:35:08;2.03;;;1.80;;
10303;SDS011;5197;48.152;8.590;2022-10-17T00:37:36;5.50;;;1.80;;
10303;SDS011;5197;48.152;8.590;2022-10-17T00:40:03;4.03;;;1.90;;
10303;SDS011;5197;48.152;8.590;2022-10-17T00:42:31;1.93;;;1.80;;
10303;SDS011;5197;48.152;8.590;2022-10-17T00:45:05;2.63;;;2.00;;
10303;SDS011;5197;48.152;8.590;2022-10-17T00:47:45;2.33;;;1.93;;
10303;SDS011;5197;48.152;8.590;2022-10-17T00:50:18;4.27;;;2.00;;
10303;SDS011;5197;48.152;8.590;2022-10-17T00:52:45;2.57;;;1.90;;
10303;SDS011;5197;48.152;8.590;2022-10-17T00:55:19;2.60;;;2.03;;
10303;SDS011;5197;48.152;8.590;2022-10-17T00:57:50;2.37;;;2.00;;
10303;SDS011;5197;48.152;8.590;2022-10-17T01:00:19;2.50;;;2.30;;
10303;SDS011;5197;48.152;8.590;2022-10-17T01:02:46;2.10;;;2.00;;
10303;SDS011;5197;48.152;8.590;2022-10-17T01:05:14;2.73;;;1.90;;
10303;SDS011;5197;48.152;8.590;2022-10-17T01:07:42;2.97;;;2.07;;
10303;SDS011;5197;48.152;8.590;2022-10-17T01:10:10;3.03;;;2.23;;
10303;SDS011;5197;48.152;8.590;2022-10-17T01:34:33;6.83;;;2.30;;
10303;SDS011;5197;48.152;8.590;2022-10-17T01:38:09;2.37;;;2.07;;
10303;SDS011;5197;48.152;8.590;2022-10-17T01:40:17;2.93;;;2.50;;
10303;SDS011;5197;48.152;8.590;2022-10-17T01:42:58;6.00;;;2.57;;
10303;SDS011;5197;48.152;8.590;2022-10-17T01:45:39;4.53;;;2.17;;
10303;SDS011;5197;48.152;8.590;2022-10-17T01:48:19;4.23;;;2.40;;
10303;SDS011;5197;48.152;8.590;2022-10-17T01:50:53;6.10;;;2.30;;
10303;SDS011;5197;48.152;8.590;2022-10-17T01:53:31;5.80;;;2.50;;
10303;SDS011;5197;48.152;8.590;2022-10-17T01:56:02;3.30;;;2.60;;
10303;SDS011;5197;48.152;8.590;2022-10-17T01:58:41;2.63;;;2.43;;
10303;SDS011;5197;48.152;8.590;2022-10-17T02:01:12;3.90;;;2.20;;
10303;SDS011;5197;48.152;8.590;2022-10-17T02:03:40;5.07;;;2.37;;
10303;SDS011;5197;48.152;8.590;2022-10-17T02:06:09;4.70;;;2.50;;
10303;SDS011;5197;48.152;8.590;2022-10-17T02:08:40;2.90;;;2.70;;
10303;SDS011;5197;48.152;8.590;2022-10-17T02:11:29;5.10;;;2.30;;
10303;SDS011;5197;48.152;8.590;2022-10-17T02:33:15;3.33;;;2.43;;
10303;SDS011;5197;48.152;8.590;2022-10-17T02:35:51;2.80;;;2.60;;
10303;SDS011;5197;48.152;8.590;2022-10-17T02:38:23;6.10;;;2.47;;
10303;SDS011;5197;48.152;8.590;2022-10-17T02:40:52;3.87;;;2.80;;
10303;SDS011;5197;48.152;8.590;2022-10-17T02:43:20;5.43;;;2.47;;
10303;SDS011;5197;48.152;8.590;2022-10-17T02:45:48;3.10;;;2.80;;
10303;SDS011;5197;48.152;8.590;2022-10-17T02:48:18;4.43;;;2.63;;
10303;SDS011;5197;48.152;8.590;2022-10-17T02:50:51;4.57;;;2.60;;
10303;SDS011;5197;48.152;8.590;2022-10-17T02:53:53;2.50;;;2.40;;
10303;SDS011;5197;48.152;8.590;2022-10-17T02:56:18;6.67;;;2.43;;
10303;SDS011;5197;48.152;8.590;2022-10-17T02:58:51;3.40;;;2.70;;
10303;SDS011;5197;48.152;8.590;2022-10-17T03:01:21;3.10;;;2.90;;
10303;SDS011;5197;48.152;8.590;2022-10-17T03:03:49;2.77;;;2.57;;
10303;SDS011;5197;48.152;8.590;2022-10-17T03:06:16;2.77;;;2.57;;
10303;SDS011;5197;48.152;8.590;2022-10-17T03:08:43;5.87;;;2.33;;
10303;SDS011;5197;48.152;8.590;2022-10-17T03:11:13;3.03;;;2.40;;
10303;SDS011;5197;48.152;8.590;2022-10-17T03:13:40;3.33;;;2.67;;
10303;SDS011;5197;48.152;8.590;2022-10-17T03:16:07;3.50;;;2.70;;
10303;SDS011;5197;48.152;8.590;2022-10-17T03:18:34;4.03;;;2.67;;
10303;SDS011;5197;48.152;8.590;2022-10-17T03:21:01;2.87;;;2.57;;
10303;SDS011;5197;48.152;8.590;2022-10-17T03:23:28;2.77;;;2.57;;
10303;SDS011;5197;48.152;8.590;2022-10-17T03:25:55;3.40;;;3.00;;
10303;SDS011;5197;48.152;8.590;2022-10-17T03:28:22;4.90;;;2.60;;
10303;SDS011;5197;48.152;8.590;2022-10-17T03:30:49;2.43;;;2.23;;
10303;SDS011;5197;48.152;8.590;2022-10-17T03:33:16;3.40;;;2.63;;
10303;SDS011;5197;48.152;8.590;2022-10-17T03:35:43;2.93;;;2.57;;
10303;SDS011;5197;48.152;8.590;2022-10-17T03:38:10;7.03;;;2.80;;
10303;SDS011;5197;48.152;8.590;2022-10-17T03:40:37;2.83;;;2.63;;
10303;SDS011;5197;48.152;8.590;2022-10-17T03:43:04;2.30;;;2.20;;
10303;SDS011;5197;48.152;8.590;2022-10-17T03:45:31;6.13;;;2.33;;
10303;SDS011;5197;48.152;8.590;2022-10-17T03:47:58;3.67;;;2.70;;
10303;SDS011;5197;48.152;8.590;2022-10-17T03:50:25;6.33;;;2.93;;
10303;SDS011;5197;48.152;8.590;2022-10-17T03:52:52;3.23;;;2.70;;
10303;SDS011;5197;48.152;8.590;2022-10-17T03:55:19;5.23;;;2.90;;
10303;SDS011;5197;48.152;8.590;2022-10-17T03:57:46;5.23;;;2.70;;
10303;SDS011;5197;48.152;8.590;2022-10-17T04:00:13;6.03;;;2.80;;
10303;SDS011;5197;48.152;8.590;2022-10-17T04:02:40;3.43;;;2.60;;
10303;SDS011;5197;48.152;8.590;2022-10-17T04:05:07;3.30;;;2.77;;
10303;SDS011;5197;48.152;8.590;2022-10-17T04:07:34;4.40;;;2.63;;
10303;SDS011;5197;48.152;8.590;2022-10-17T04:10:03;3.80;;;2.83;;
10303;SDS011;5197;48.152;8.590;2022-10-17T04:12:30;4.13;;;3.17;;
10303;SDS011;5197;48.152;8.590;2022-10-17T04:14:57;6.43;;;2.67;;
10303;SDS011;5197;48.152;8.590;2022-10-17T04:17:24;5.17;;;2.97;;
10303;SDS011;5197;48.152;8.590;2022-10-17T04:19:51;3.63;;;3.10;;
10303;SDS011;5197;48.152;8.590;2022-10-17T04:22:18;5.20;;;3.10;;
10303;SDS011;5197;48.152;8.590;2022-10-17T04:24:45;3.50;;;3.20;;
10303;SDS011;5197;48.152;8.590;2022-10-17T04:27:12;5.07;;;3.30;;
10303;SDS011;5197;48.152;8.590;2022-10-17T04:29:39;8.77;;;3.53;;
10303;SDS011;5197;48.152;8.590;2022-10-17T04:32:06;4.90;;;3.60;;
10303;SDS011;5197;48.152;8.590;2022-10-17T04:34:33;5.57;;;3.67;;
10303;SDS011;5197;48.152;8.590;2022-10-17T04:37:00;7.07;;;3.57;;
10303;SDS011;5197;48.152;8.590;2022-10-17T04:39:28;4.30;;;3.90;;
10303;SDS011;5197;48.152;8.590;2022-10-17T04:41:55;10.83;;;4.40;;
10303;SDS011;5197;48.152;8.590;2022-10-17T04:44:22;6.33;;;3.93;;
10303;SDS011;5197;48.152;8.590;2022-10-17T04:46:49;5.20;;;3.70;;
10303;SDS011;5197;48.152;8.590;2022-10-17T04:49:16;6.03;;;4.03;;
10303;SDS011;5197;48.152;8.590;2022-10-17T04:51:43;4.87;;;4.37;;
10303;SDS011;5197;48.152;8.590;2022-10-17T04:54:10;4.60;;;4.13;;
10303;SDS011;5197;48.152;8.590;2022-10-17T04:56:37;5.40;;;4.00;;
10303;SDS011;5197;48.152;8.590;2022-10-17T04:59:03;4.70;;;4.07;;
10303;SDS011;5197;48.152;8.590;2022-10-17T05:01:33;8.00;;;4.27;;
10303;SDS011;5197;48.152;8.590;2022-10-17T05:04:00;8.80;;;3.90;;
10303;SDS011;5197;48.152;8.590;2022-10-17T05:06:27;5.57;;;4.10;;
10303;SDS011;5197;48.152;8.590;2022-10-17T05:08:54;6.43;;;3.73;;
10303;SDS011;5197;48.152;8.590;2022-10-17T05:11:24;5.13;;;3.70;;
10303;SDS011;5197;48.152;8.590;2022-10-17T05:13:53;4.97;;;3.20;;
10303;SDS011;5197;48.152;8.590;2022-10-17T05:16:22;3.80;;;3.50;;
10303;SDS011;5197;48.152;8.590;2022-10-17T05:18:50;5.87;;;4.03;;
10303;SDS011;5197;48.152;8.590;2022-10-17T05:21:19;2.93;;;2.73;;
10303;SDS011;5197;48.152;8.590;2022-10-17T05:23:47;4.90;;;2.80;;
10303;SDS011;5197;48.152;8.590;2022-10-17T05:26:14;3.40;;;2.87;;
10303;SDS011;5197;48.152;8.590;2022-10-17T05:28:41;4.17;;;3.00;;
10303;SDS011;5197;48.152;8.590;2022-10-17T05:31:08;3.07;;;2.87;;
10303;SDS011;5197;48.152;8.590;2022-10-17T05:33:37;2.73;;;2.60;;
10303;SDS011;5197;48.152;8.590;2022-10-17T05:36:05;4.63;;;2.90;;
10303;SDS011;5197;48.152;8.590;2022-10-17T05:38:33;4.50;;;2.60;;
10303;SDS011;5197;48.152;8.590;2022-10-17T05:41:01;3.50;;;3.17;;
10303;SDS011;5197;48.152;8.590;2022-10-17T05:43:30;3.53;;;3.23;;
10303;SDS011;5197;48.152;8.590;2022-10-17T05:46:01;3.00;;;2.80;;
10303;SDS011;5197;48.152;8.590;2022-10-17T05:48:29;2.93;;;2.60;;
10303;SDS011;5197;48.152;8.590;2022-10-17T05:50:57;3.70;;;2.80;;
10303;SDS011;5197;48.152;8.590;2022-10-17T05:53:25;2.97;;;2.77;;
10303;SDS011;5197;48.152;8.590;2022-10-17T05:55:56;4.07;;;3.10;;
10303;SDS011;5197;48.152;8.590;2022-10-17T05:58:24;4.73;;;4.33;;
10303;SDS011;5197;48.152;8.590;2022-10-17T06:01:11;3.60;;;3.20;;
10303;SDS011;5197;48.152;8.590;2022-10-17T06:03:39;4.13;;;3.73;;
10303;SDS011;5197;48.152;8.590;2022-10-17T06:06:06;6.07;;;3.80;;
10303;SDS011;5197;48.152;8.590;2022-10-17T06:08:35;6.10;;;3.90;;
10303;SDS011;5197;48.152;8.590;2022-10-17T06:11:02;4.03;;;3.30;;
10303;SDS011;5197;48.152;8.590;2022-10-17T06:13:35;4.40;;;3.43;;
10303;SDS011;5197;48.152;8.590;2022-10-17T06:16:02;4.37;;;3.00;;
10303;SDS011;5197;48.152;8.590;2022-10-17T06:18:29;3.83;;;3.07;;
10303;SDS011;5197;48.152;8.590;2022-10-17T06:21:03;4.80;;;2.80;;
10303;SDS011;5197;48.152;8.590;2022-10-17T06:23:35;7.50;;;3.00;;
10303;SDS011;5197;48.152;8.590;2022-10-17T06:26:03;4.23;;;2.70;;
10303;SDS011;5197;48.152;8.590;2022-10-17T06:28:31;5.37;;;2.90;;
10303;SDS011;5197;48.152;8.590;2022-10-17T06:30:58;3.03;;;2.63;;
10303;SDS011;5197;48.152;8.590;2022-10-17T06:33:29;3.33;;;2.70;;
10303;SDS011;5197;48.152;8.590;2022-10-17T06:35:56;5.20;;;2.63;;
10303;SDS011;5197;48.152;8.590;2022-10-17T06:38:23;2.93;;;2.30;;
10303;SDS011;5197;48.152;8.590;2022-10-17T06:40:50;3.70;;;2.33;;
10303;SDS011;5197;48.152;8.590;2022-10-17T06:43:19;8.17;;;2.43;;
10303;SDS011;5197;48.152;8.590;2022-10-17T06:45:53;4.07;;;2.10;;
10303;SDS011;5197;48.152;8.590;2022-10-17T06:48:20;2.93;;;2.20;;
10303;SDS011;5197;48.152;8.590;2022-10-17T06:50:47;3.17;;;2.37;;
10303;SDS011;5197;48.152;8.590;2022-10-17T06:53:14;3.53;;;2.23;;
10303;SDS011;5197;48.152;8.590;2022-10-17T06:55:41;4.73;;;2.37;;
10303;SDS011;5197;48.152;8.590;2022-10-17T06:58:08;3.07;;;2.00;;
10303;SDS011;5197;48.152;8.590;2022-10-17T07:00:35;1.93;;;1.80;;
10303;SDS011;5197;48.152;8.590;2022-10-17T07:03:02;4.43;;;1.80;;
10303;SDS011;5197;48.152;8.590;2022-10-17T07:05:29;1.83;;;1.73;;
10303;SDS011;5197;48.152;8.590;2022-10-17T07:07:56;5.43;;;2.00;;
10303;SDS011;5197;48.152;8.590;2022-10-17T07:10:23;2.40;;;2.20;;
10303;SDS011;5197;48.152;8.590;2022-10-17T07:12:51;4.15;;;1.77;;
10303;SDS011;5197;48.152;8.590;2022-10-17T07:15:18;2.80;;;2.05;;
10303;SDS011;5197;48.152;8.590;2022-10-17T07:17:48;2.53;;;1.95;;
10303;SDS011;5197;48.152;8.590;2022-10-17T07:20:16;2.70;;;1.90;;
10303;SDS011;5197;48.152;8.590;2022-10-17T07:22:43;2.17;;;1.75;;
10303;SDS011;5197;48.152;8.590;2022-10-17T07:25:09;2.35;;;2.10;;
10303;SDS011;5197;48.152;8.590;2022-10-17T07:27:36;4.43;;;1.67;;
10303;SDS011;5197;48.152;8.590;2022-10-17T07:30:04;3.42;;;1.80;;
10303;SDS011;5197;48.152;8.590;2022-10-17T07:32:31;1.80;;;1.70;;
10303;SDS011;5197;48.152;8.590;2022-10-17T07:34:58;3.75;;;1.90;;
10303;SDS011;5197;48.152;8.590;2022-10-17T07:37:25;2.25;;;2.05;;
10303;SDS011;5197;48.152;8.590;2022-10-17T07:39:52;3.63;;;1.90;;
10303;SDS011;5197;48.152;8.590;2022-10-17T07:42:19;4.22;;;2.13;;
10303;SDS011;5197;48.152;8.590;2022-10-17T07:44:46;2.17;;;1.90;;
10303;SDS011;5197;48.152;8.590;2022-10-17T07:47:13;3.35;;;2.00;;
10303;SDS011;5197;48.152;8.590;2022-10-17T07:49:40;2.63;;;2.20;;
10303;SDS011;5197;48.152;8.590;2022-10-17T07:52:12;2.05;;;1.75;;
10303;SDS011;5197;48.152;8.590;2022-10-17T07:54:41;2.05;;;1.95;;
10303;SDS011;5197;48.152;8.590;2022-10-17T07:57:08;1.77;;;1.67;;
10303;SDS011;5197;48.152;8.590;2022-10-17T07:59:36;2.60;;;1.83;;
10303;SDS011;5197;48.152;8.590;2022-10-17T08:02:03;2.05;;;1.90;;
10303;SDS011;5197;48.152;8.590;2022-10-17T08:04:30;2.65;;;1.90;;
10303;SDS011;5197;48.152;8.590;2022-10-17T08:06:59;2.10;;;1.90;;
10303;SDS011;5197;48.152;8.590;2022-10-17T08:09:45;3.05;;;2.10;;
10303;SDS011;5197;48.152;8.590;2022-10-17T08:12:12;4.22;;;2.10;;
10303;SDS011;5197;48.152;8.590;2022-10-17T08:14:40;4.80;;;1.92;;
10303;SDS011;5197;48.152;8.590;2022-10-17T08:17:08;4.57;;;1.60;;
10303;SDS011;5197;48.152;8.590;2022-10-17T08:19:39;2.35;;;1.60;;
10303;SDS011;5197;48.152;8.590;2022-10-17T08:22:06;1.50;;;1.40;;
10303;SDS011;5197;48.152;8.590;2022-10-17T08:24:33;1.83;;;1.73;;
10303;SDS011;5197;48.152;8.590;2022-10-17T08:27:00;2.75;;;1.80;;
10303;SDS011;5197;48.152;8.590;2022-10-17T08:29:27;4.70;;;1.90;;
10303;SDS011;5197;48.152;8.590;2022-10-17T08:31:54;2.28;;;1.73;;
10303;SDS011;5197;48.152;8.590;2022-10-17T08:34:27;1.90;;;1.80;;
10303;SDS011;5197;48.152;8.590;2022-10-17T08:36:54;4.70;;;1.90;;
10303;SDS011;5197;48.152;8.590;2022-10-17T08:39:21;3.50;;;1.70;;
10303;SDS011;5197;48.152;8.590;2022-10-17T08:41:51;1.90;;;1.67;;
10303;SDS011;5197;48.152;8.590;2022-10-17T08:47:05;2.20;;;1.73;;
10303;SDS011;5197;48.152;8.590;2022-10-17T08:49:57;3.55;;;1.67;;
10303;SDS011;5197;48.152;8.590;2022-10-17T08:55:13;3.20;;;1.70;;
10303;SDS011;5197;48.152;8.590;2022-10-17T08:58:20;3.90;;;2.03;;
10303;SDS011;5197;48.152;8.590;2022-10-17T09:01:39;2.63;;;1.90;;
10303;SDS011;5197;48.152;8.590;2022-10-17T09:06:22;3.78;;;1.60;;
10303;SDS011;5197;48.152;8.590;2022-10-17T09:20:00;3.03;;;1.95;;
10303;SDS011;5197;48.152;8.590;2022-10-17T09:22:31;1.80;;;1.70;;
10303;SDS011;5197;48.152;8.590;2022-10-17T09:25:03;4.38;;;1.63;;
10303;SDS011;5197;48.152;8.590;2022-10-17T09:27:41;4.22;;;1.70;;
10303;SDS011;5197;48.152;8.590;2022-10-17T09:35:58;1.90;;;1.50;;
10303;SDS011;5197;48.152;8.590;2022-10-17T09:38:29;2.03;;;1.80;;
10303;SDS011;5197;48.152;8.590;2022-10-17T09:41:04;3.45;;;1.60;;
10303;SDS011;5197;48.152;8.590;2022-10-17T09:49:44;1.50;;;1.40;;
10303;SDS011;5197;48.152;8.590;2022-10-17T09:52:13;2.97;;;1.67;;
10303;SDS011;5197;48.152;8.590;2022-10-17T09:57:15;4.30;;;1.50;;
10303;SDS011;5197;48.152;8.590;2022-10-17T09:59:47;1.60;;;1.50;;
10303;SDS011;5197;48.152;8.590;2022-10-17T10:02:26;1.92;;;1.83;;
10303;SDS011;5197;48.152;8.590;2022-10-17T10:07:41;4.85;;;1.83;;
10303;SDS011;5197;48.152;8.590;2022-10-17T10:10:24;1.70;;;1.60;;
10303;SDS011;5197;48.152;8.590;2022-10-17T10:13:04;1.95;;;1.50;;
10303;SDS011;5197;48.152;8.590;2022-10-17T10:15:33;2.38;;;1.65;;
10303;SDS011;5197;48.152;8.590;2022-10-17T10:18:10;3.42;;;1.65;;
10303;SDS011;5197;48.152;8.590;2022-10-17T10:23:34;7.00;;;1.77;;
10303;SDS011;5197;48.152;8.590;2022-10-17T10:26:22;2.45;;;1.55;;
10303;SDS011;5197;48.152;8.590;2022-10-17T10:28:52;4.97;;;1.60;;
10303;SDS011;5197;48.152;8.590;2022-10-17T10:31:30;3.50;;;1.80;;
10303;SDS011;5197;48.152;8.590;2022-10-17T10:34:00;2.55;;;2.22;;
10303;SDS011;5197;48.152;8.590;2022-10-17T10:39:30;2.05;;;1.52;;
10303;SDS011;5197;48.152;8.590;2022-10-17T10:42:17;1.73;;;1.60;;
10303;SDS011;5197;48.152;8.590;2022-10-17T10:50:42;2.33;;;1.70;;
10303;SDS011;5197;48.152;8.590;2022-10-17T10:55:48;2.05;;;1.70;;
10303;SDS011;5197;48.152;8.590;2022-10-17T11:06:35;2.65;;;1.60;;
10303;SDS011;5197;48.152;8.590;2022-10-17T11:11:54;4.95;;;1.80;;
10303;SDS011;5197;48.152;8.590;2022-10-17T11:14:36;1.80;;;1.60;;
10303;SDS011;5197;48.152;8.590;2022-10-17T11:17:10;2.20;;;1.50;;
10303;SDS011;5197;48.152;8.590;2022-10-17T11:22:52;1.80;;;1.70;;
10303;SDS011;5197;48.152;8.590;2022-10-17T11:25:30;2.03;;;1.50;;
10303;SDS011;5197;48.152;8.590;2022-10-17T11:28:02;2.90;;;1.65;;
10303;SDS011;5197;48.152;8.590;2022-10-17T11:31:00;2.78;;;1.50;;
10303;SDS011;5197;48.152;8.590;2022-10-17T11:36:20;2.25;;;1.60;;
10303;SDS011;5197;48.152;8.590;2022-10-17T11:39:00;2.17;;;1.52;;
10303;SDS011;5197;48.152;8.590;2022-10-17T11:41:40;3.83;;;1.55;;
10303;SDS011;5197;48.152;8.590;2022-10-17T11:44:29;3.70;;;1.52;;
10303;SDS011;5197;48.152;8.590;2022-10-17T11:47:03;1.98;;;1.77;;
10303;SDS011;5197;48.152;8.590;2022-10-17T11:49:33;3.85;;;1.55;;
10303;SDS011;5197;48.152;8.590;2022-10-17T11:52:27;6.25;;;1.67;;
10303;SDS011;5197;48.152;8.590;2022-10-17T11:55:23;6.38;;;1.88;;
10303;SDS011;5197;48.152;8.590;2022-10-17T12:03:04;3.60;;;1.75;;
10303;SDS011;5197;48.152;8.590;2022-10-17T12:13:54;3.05;;;1.63;;
10303;SDS011;5197;48.152;8.590;2022-10-17T12:21:28;2.53;;;1.40;;
10303;SDS011;5197;48.152;8.590;2022-10-17T12:27:21;2.65;;;1.63;;
10303;SDS011;5197;48.152;8.590;2022-10-17T12:29:48;4.32;;;1.30;;
10303;SDS011;5197;48.152;8.590;2022-10-17T12:32:16;3.85;;;1.60;;
10303;SDS011;5197;48.152;8.590;2022-10-17T12:34:52;3.30;;;1.13;;
10303;SDS011;5197;48.152;8.590;2022-10-17T12:43:01;3.45;;;1.20;;
10303;SDS011;5197;48.152;8.590;2022-10-17T12:46:07;2.40;;;1.10;;
10303;SDS011;5197;48.152;8.590;2022-10-17T12:54:07;1.48;;;0.95;;
10303;SDS011;5197;48.152;8.590;2022-10-17T12:56:42;4.93;;;1.15;;
10303;SDS011;5197;48.152;8.590;2022-10-17T12:59:23;3.83;;;0.95;;
10303;SDS011;5197;48.152;8.590;2022-10-17T13:01:52;3.47;;;1.13;;
10303;SDS011;5197;48.152;8.590;2022-10-17T13:04:24;4.43;;;1.10;;
10303;SDS011;5197;48.152;8.590;2022-10-17T13:06:54;1.92;;;1.10;;
10303;SDS011;5197;48.152;8.590;2022-10-17T13:09:25;2.53;;;1.00;;
10303;SDS011;5197;48.152;8.590;2022-10-17T13:11:53;3.20;;;0.98;;
10303;SDS011;5197;48.152;8.590;2022-10-17T13:14:23;1.38;;;1.10;;
10303;SDS011;5197;48.152;8.590;2022-10-17T13:16:55;3.70;;;0.90;;
10303;SDS011;5197;48.152;8.590;2022-10-17T13:19:24;1.60;;;0.90;;
10303;SDS011;5197;48.152;8.590;2022-10-17T13:21:59;1.17;;;0.88;;
10303;SDS011;5197;48.152;8.590;2022-10-17T13:27:00;1.00;;;1.00;;
10303;SDS011;5197;48.152;8.590;2022-10-17T13:29:28;0.70;;;0.68;;
10303;SDS011;5197;48.152;8.590;2022-10-17T13:31:58;1.55;;;0.73;;
10303;SDS011;5197;48.152;8.590;2022-10-17T13:34:27;1.40;;;0.70;;
10303;SDS011;5197;48.152;8.590;2022-10-17T13:36:55;2.10;;;0.63;;
10303;SDS011;5197;48.152;8.590;2022-10-17T13:39:25;2.80;;;0.80;;
10303;SDS011;5197;48.152;8.590;2022-10-17T13:42:20;1.92;;;0.80;;
10303;SDS011;5197;48.152;8.590;2022-10-17T13:44:50;2.80;;;0.70;;
10303;SDS011;5197;48.152;8.590;2022-10-17T13:47:22;1.17;;;0.50;;
10303;SDS011;5197;48.152;8.590;2022-10-17T13:49:50;1.05;;;0.55;;
10303;SDS011;5197;48.152;8.590;2022-10-17T13:52:22;1.20;;;0.73;;
10303;SDS011;5197;48.152;8.590;2022-10-17T13:54:52;2.40;;;0.75;;
10303;SDS011;5197;48.152;8.590;2022-10-17T13:57:24;0.65;;;0.55;;
10303;SDS011;5197;48.152;8.590;2022-10-17T13:59:54;1.85;;;0.70;;
10303;SDS011;5197;48.152;8.590;2022-10-17T14:02:28;3.92;;;0.85;;
10303;SDS011;5197;48.152;8.590;2022-10-17T14:07:52;0.57;;;0.57;;
10303;SDS011;5197;48.152;8.590;2022-10-17T14:10:38;1.52;;;0.60;;
10303;SDS011;5197;48.152;8.590;2022-10-17T14:13:06;2.30;;;0.70;;
10303;SDS011;5197;48.152;8.590;2022-10-17T14:15:43;1.23;;;0.70;;
10303;SDS011;5197;48.152;8.590;2022-10-17T14:18:18;1.95;;;0.90;;
10303;SDS011;5197;48.152;8.590;2022-10-17T14:20:49;1.00;;;0.70;;
10303;SDS011;5197;48.152;8.590;2022-10-17T14:23:41;0.93;;;0.60;;
10303;SDS011;5197;48.152;8.590;2022-10-17T14:26:13;3.60;;;0.93;;
10303;SDS011;5197;48.152;8.590;2022-10-17T14:28:44;0.82;;;0.75;;
10303;SDS011;5197;48.152;8.590;2022-10-17T14:33:46;1.25;;;0.65;;
10303;SDS011;5197;48.152;8.590;2022-10-17T14:36:17;0.80;;;0.80;;
10303;SDS011;5197;48.152;8.590;2022-10-17T14:38:46;1.30;;;0.63;;
10303;SDS011;5197;48.152;8.590;2022-10-17T14:41:21;1.77;;;0.82;;
10303;SDS011;5197;48.152;8.590;2022-10-17T14:44:14;1.73;;;1.00;;
10303;SDS011;5197;48.152;8.590;2022-10-17T14:46:46;2.22;;;0.90;;
10303;SDS011;5197;48.152;8.590;2022-10-17T14:49:20;3.03;;;1.00;;
10303;SDS011;5197;48.152;8.590;2022-10-17T14:52:08;1.60;;;1.00;;
10303;SDS011;5197;48.152;8.590;2022-10-17T14:54:49;2.20;;;1.00;;
10303;SDS011;5197;48.152;8.590;2022-10-17T15:00:16;1.27;;;0.93;;
10303;SDS011;5197;48.152;8.590;2022-10-17T15:02:45;1.02;;;0.93;;
10303;SDS011;5197;48.152;8.590;2022-10-17T15:05:13;0.80;;;0.80;;
10303;SDS011;5197;48.152;8.590;2022-10-17T15:07:41;3.40;;;0.90;;
10303;SDS011;5197;48.152;8.590;2022-10-17T15:10:31;1.10;;;1.00;;
10303;SDS011;5197;48.152;8.590;2022-10-17T15:12:58;2.42;;;1.17;;
10303;SDS011;5197;48.152;8.590;2022-10-17T15:15:46;4.57;;;1.15;;
10303;SDS011;5197;48.152;8.590;2022-10-17T15:18:17;1.48;;;1.00;;
10303;SDS011;5197;48.152;8.590;2022-10-17T15:20:44;6.13;;;1.38;;
10303;SDS011;5197;48.152;8.590;2022-10-17T15:23:11;3.67;;;1.00;;
10303;SDS011;5197;48.152;8.590;2022-10-17T15:25:38;2.30;;;1.00;;
10303;SDS011;5197;48.152;8.590;2022-10-17T15:28:05;2.90;;;1.15;;
10303;SDS011;5197;48.152;8.590;2022-10-17T15:30:34;3.63;;;1.05;;
10303;SDS011;5197;48.152;8.590;2022-10-17T15:33:01;5.32;;;1.27;;
10303;SDS011;5197;48.152;8.590;2022-10-17T15:35:28;6.03;;;1.08;;
10303;SDS011;5197;48.152;8.590;2022-10-17T15:37:56;3.50;;;0.88;;
10303;SDS011;5197;48.152;8.590;2022-10-17T15:40:24;4.88;;;1.10;;
10303;SDS011;5197;48.152;8.590;2022-10-17T15:42:56;5.03;;;1.20;;
10303;SDS011;5197;48.152;8.590;2022-10-17T15:45:23;4.65;;;1.17;;
10303;SDS011;5197;48.152;8.590;2022-10-17T15:47:51;1.90;;;1.00;;
10303;SDS011;5197;48.152;8.590;2022-10-17T15:50:24;1.90;;;0.90;;
10303;SDS011;5197;48.152;8.590;2022-10-17T15:52:51;4.80;;;1.02;;
10303;SDS011;5197;48.152;8.590;2022-10-17T15:55:18;5.80;;;1.23;;
10303;SDS011;5197;48.152;8.590;2022-10-17T15:57:46;4.07;;;1.42;;
10303;SDS011;5197;48.152;8.590;2022-10-17T16:00:18;2.22;;;1.10;;
10303;SDS011;5197;48.152;8.590;2022-10-17T16:02:47;1.10;;;1.00;;
10303;SDS011;5197;48.152;8.590;2022-10-17T16:05:16;2.90;;;1.05;;
10303;SDS011;5197;48.152;8.590;2022-10-17T16:07:48;5.63;;;1.10;;
10303;SDS011;5197;48.152;8.590;2022-10-17T16:10:15;3.20;;;1.40;;
10303;SDS011;5197;48.152;8.590;2022-10-17T16:12:43;2.95;;;1.20;;
10303;SDS011;5197;48.152;8.590;2022-10-17T16:17:45;2.70;;;1.35;;
10303;SDS011;5197;48.152;8.590;2022-10-17T16:20:12;1.50;;;1.20;;
10303;SDS011;5197;48.152;8.590;2022-10-17T16:22:41;6.40;;;1.35;;
10303;SDS011;5197;48.152;8.590;2022-10-17T16:25:31;5.40;;;1.15;;
10303;SDS011;5197;48.152;8.590;2022-10-17T16:27:58;2.17;;;1.17;;
10303;SDS011;5197;48.152;8.590;2022-10-17T16:30:26;3.67;;;1.20;;
10303;SDS011;5197;48.152;8.590;2022-10-17T16:32:54;3.20;;;1.35;;
10303;SDS011;5197;48.152;8.590;2022-10-17T16:35:23;6.00;;;1.23;;
10303;SDS011;5197;48.152;8.590;2022-10-17T16:37:52;5.13;;;1.48;;
10303;SDS011;5197;48.152;8.590;2022-10-17T16:40:19;6.15;;;1.20;;
10303;SDS011;5197;48.152;8.590;2022-10-17T16:42:46;3.15;;;1.27;;
10303;SDS011;5197;48.152;8.590;2022-10-17T16:45:15;4.20;;;1.13;;
10303;SDS011;5197;48.152;8.590;2022-10-17T16:47:43;5.13;;;1.75;;
10303;SDS011;5197;48.152;8.590;2022-10-17T16:50:11;1.95;;;1.40;;
10303;SDS011;5197;48.152;8.590;2022-10-17T16:52:38;3.35;;;1.30;;
10303;SDS011;5197;48.152;8.590;2022-10-17T16:55:05;4.38;;;1.20;;
10303;SDS011;5197;48.152;8.590;2022-10-17T16:57:33;5.00;;;1.50;;
10303;SDS011;5197;48.152;8.590;2022-10-17T17:00:00;3.40;;;1.30;;
10303;SDS011;5197;48.152;8.590;2022-10-17T17:02:27;2.38;;;1.25;;
10303;SDS011;5197;48.152;8.590;2022-10-17T17:04:55;2.35;;;1.30;;
10303;SDS011;5197;48.152;8.590;2022-10-17T17:07:22;4.55;;;1.40;;
10303;SDS011;5197;48.152;8.590;2022-10-17T17:09:49;3.85;;;1.67;;
10303;SDS011;5197;48.152;8.590;2022-10-17T17:12:16;5.43;;;1.58;;
10303;SDS011;5197;48.152;8.590;2022-10-17T17:14:43;3.85;;;1.30;;
10303;SDS011;5197;48.152;8.590;2022-10-17T17:17:10;3.70;;;1.50;;
10303;SDS011;5197;48.152;8.590;2022-10-17T17:19:55;1.42;;;1.33;;
10303;SDS011;5197;48.152;8.590;2022-10-17T17:22:22;2.30;;;2.00;;
10303;SDS011;5197;48.152;8.590;2022-10-17T17:24:49;1.83;;;1.60;;
10303;SDS011;5197;48.152;8.590;2022-10-17T17:27:16;3.33;;;1.50;;
10303;SDS011;5197;48.152;8.590;2022-10-17T17:29:43;1.57;;;1.30;;
10303;SDS011;5197;48.152;8.590;2022-10-17T17:32:10;2.37;;;1.50;;
10303;SDS011;5197;48.152;8.590;2022-10-17T17:34:38;3.43;;;1.30;;
10303;SDS011;5197;48.152;8.590;2022-10-17T17:37:06;1.80;;;1.17;;
10303;SDS011;5197;48.152;8.590;2022-10-17T17:39:33;2.73;;;1.40;;
10303;SDS011;5197;48.152;8.590;2022-10-17T17:42:03;4.97;;;1.40;;
10303;SDS011;5197;48.152;8.590;2022-10-17T17:44:30;3.77;;;1.53;;
10303;SDS011;5197;48.152;8.590;2022-10-17T17:46:57;4.43;;;1.43;;
10303;SDS011;5197;48.152;8.590;2022-10-17T17:49:24;3.57;;;1.40;;
10303;SDS011;5197;48.152;8.590;2022-10-17T17:51:51;4.03;;;2.10;;
10303;SDS011;5197;48.152;8.590;2022-10-17T17:54:18;3.43;;;1.57;;
10303;SDS011;5197;48.152;8.590;2022-10-17T17:56:45;1.87;;;1.50;;